Time;durP1;ratioP1;P1;durP2;ratioP2;P2;SDS_P1;SDS_P2;PMS_P1;PMS_P2;Temp;Humidity;BMP_temperature;BMP_pressure;BME280_temperature;BME280_humidity;BME280_pressure;Samples;Min_cycle;Max_cycle;Signal;HPM_P1;HPM_P2
2021/12/30 00:00:14;;;;;;;43.85;26.20;;;;;;;3.89;100.00;100887.09;4996902;28;20042;-68
2021/12/30 00:03:01;;;;;;;48.17;27.55;;;;;;;4.04;100.00;100889.00;4982894;28;20109;-68
2021/12/30 00:05:47;;;;;;;43.03;24.92;;;;;;;4.03;100.00;100892.47;4996770;28;20096;-69
2021/12/30 00:08:33;;;;;;;42.00;26.20;;;;;;;4.37;100.00;100892.84;4996568;28;20041;-69
2021/12/30 00:11:19;;;;;;;43.00;25.35;;;;;;;4.24;100.00;100893.56;4997155;28;20030;-69
2021/12/30 00:14:08;;;;;;;42.25;25.92;;;;;;;3.82;100.00;100900.84;4996631;28;20034;-68
2021/12/30 00:16:54;;;;;;;41.30;24.75;;;;;;;3.47;100.00;100901.22;4996081;28;20440;-69
2021/12/30 00:19:40;;;;;;;44.35;25.55;;;;;;;3.00;100.00;100908.31;4996810;28;20030;-68
2021/12/30 00:22:26;;;;;;;39.58;23.92;;;;;;;3.28;100.00;100904.41;4996648;28;20023;-68
2021/12/30 00:25:13;;;;;;;38.47;22.65;;;;;;;3.51;100.00;100916.84;4983200;28;20069;-69
2021/12/30 00:27:58;;;;;;;40.05;23.55;;;;;;;4.01;100.00;100910.56;4996530;28;20041;-69
2021/12/30 00:30:45;;;;;;;39.67;23.67;;;;;;;4.21;100.00;100915.97;4995512;28;20100;-70
2021/12/30 00:33:34;;;;;;;44.03;25.58;;;;;;;4.19;100.00;100905.59;4996387;28;20031;-70
2021/12/30 00:36:20;;;;;;;43.72;24.25;;;;;;;4.04;100.00;100915.81;4996754;28;20066;-68
2021/12/30 00:39:06;;;;;;;37.08;23.35;;;;;;;3.97;100.00;100918.28;4995936;28;20040;-68
2021/12/30 00:41:52;;;;;;;38.53;23.13;;;;;;;4.23;100.00;100915.13;4994884;28;20022;-69
2021/12/30 00:44:37;;;;;;;38.85;23.30;;;;;;;4.42;100.00;100917.09;4996432;28;20041;-69
2021/12/30 00:47:23;;;;;;;34.97;21.13;;;;;;;4.52;100.00;100921.53;4995862;28;20424;-69
2021/12/30 00:50:10;;;;;;;35.55;21.38;;;;;;;3.98;100.00;100909.69;4995802;28;20023;-67
2021/12/30 00:52:58;;;;;;;34.97;20.85;;;;;;;4.33;100.00;100910.94;4996179;28;20018;-68
2021/12/30 00:55:44;;;;;;;35.45;21.67;;;;;;;4.16;100.00;100913.34;4995490;28;20041;-69
2021/12/30 00:58:30;;;;;;;30.88;20.02;;;;;;;4.34;100.00;100915.28;4995895;28;20030;-68
2021/12/30 01:01:16;;;;;;;31.30;19.52;;;;;;;4.33;100.00;100917.00;4995557;28;20081;-69
2021/12/30 01:04:02;;;;;;;27.23;17.60;;;;;;;4.13;100.00;100921.09;4996187;28;20033;-69
2021/12/30 01:06:48;;;;;;;30.27;18.52;;;;;;;3.87;100.00;100916.44;4981396;28;20085;-69
2021/12/30 01:09:34;;;;;;;32.60;20.15;;;;;;;3.70;100.00;100918.81;4995645;28;20039;-68
2021/12/30 01:12:20;;;;;;;34.30;20.25;;;;;;;3.86;100.00;100915.56;4996382;28;20026;-69
2021/12/30 01:15:10;;;;;;;30.50;18.80;;;;;;;3.81;100.00;100918.94;4995936;28;20030;-69
2021/12/30 01:18:19;;;;;;;32.88;20.23;;;;;;;3.44;100.00;100920.19;4995646;28;20030;-68
2021/12/30 01:21:03;;;;;;;32.38;19.13;;;;;;;3.51;100.00;100918.56;4995239;28;20149;-69
2021/12/30 01:23:49;;;;;;;32.92;20.25;;;;;;;3.60;100.00;100916.09;4996349;28;20030;-70
2021/12/30 01:26:35;;;;;;;31.17;19.35;;;;;;;3.77;100.00;100920.63;4995385;28;20026;-69
2021/12/30 01:29:21;;;;;;;35.88;20.63;;;;;;;3.64;100.00;100917.88;4995854;28;20359;-69
2021/12/30 01:32:07;;;;;;;33.60;19.23;;;;;;;3.82;100.00;100929.34;4995115;28;20030;-70
2021/12/30 01:34:53;;;;;;;38.05;21.15;;;;;;;3.98;100.00;100935.59;4981430;28;20450;-70
2021/12/30 01:37:39;;;;;;;37.55;20.60;;;;;;;3.85;100.00;100931.97;4995458;28;20113;-69
2021/12/30 01:40:25;;;;;;;40.10;22.58;;;;;;;3.80;100.00;100933.66;4995053;28;20026;-68
2021/12/30 01:43:11;;;;;;;38.35;22.92;;;;;;;3.83;100.00;100940.59;4994951;28;20034;-69
2021/12/30 01:45:57;;;;;;;38.30;21.40;;;;;;;3.55;100.00;100938.47;4980912;28;20027;-69
2021/12/30 01:48:43;;;;;;;42.22;23.88;;;;;;;3.49;100.00;100931.47;4994685;28;20038;-69
2021/12/30 01:51:29;;;;;;;42.97;23.27;;;;;;;3.60;100.00;100935.09;4995763;28;20473;-69
2021/12/30 01:54:15;;;;;;;40.00;22.38;;;;;;;3.86;100.00;100936.28;4994747;28;20411;-69
2021/12/30 01:57:06;;;;;;;36.72;21.65;;;;;;;3.41;100.00;100935.69;4994519;28;20029;-70
2021/12/30 01:59:51;;;;;;;41.00;23.70;;;;;;;3.60;100.00;100942.88;4994304;28;20124;-70
2021/12/30 02:02:37;;;;;;;44.05;23.77;;;;;;;3.83;100.00;100943.19;4994449;28;20022;-70
2021/12/30 02:05:23;;;;;;;40.55;22.52;;;;;;;3.63;100.00;100948.09;4994763;28;20066;-68
2021/12/30 02:08:13;;;;;;;33.55;20.55;;;;;;;3.94;100.00;100945.03;4994987;28;20033;-69
2021/12/30 02:10:59;;;;;;;32.80;19.58;;;;;;;3.99;100.00;100950.28;4994989;28;20068;-70
2021/12/30 02:13:47;;;;;;;29.80;18.67;;;;;;;4.09;100.00;100958.19;4994540;28;20018;-70
2021/12/30 02:16:33;;;;;;;36.75;20.38;;;;;;;3.64;100.00;100951.53;4980295;28;20030;-68
2021/12/30 02:19:19;;;;;;;38.05;21.05;;;;;;;3.42;100.00;100960.72;4980136;28;20026;-69
2021/12/30 02:22:04;;;;;;;32.38;20.13;;;;;;;3.42;100.00;100960.72;4981533;28;20176;-69
2021/12/30 02:24:51;;;;;;;34.80;20.92;;;;;;;3.52;100.00;100954.84;4994393;28;20038;-70
2021/12/30 02:27:36;;;;;;;34.60;19.67;;;;;;;3.80;100.00;100954.38;4994587;28;20037;-69
2021/12/30 02:30:22;;;;;;;33.42;19.95;;;;;;;3.92;100.00;100958.84;4994545;28;20030;-69
2021/12/30 02:33:08;;;;;;;33.08;19.23;;;;;;;3.94;100.00;100959.75;4980495;28;20022;-69
2021/12/30 02:35:56;;;;;;;32.20;19.42;;;;;;;3.57;100.00;100953.19;4995582;28;20471;-70
2021/12/30 02:38:45;;;;;;;31.30;18.48;;;;;;;4.06;100.00;100965.09;4994179;28;20037;-68
2021/12/30 02:41:34;;;;;;;31.95;19.00;;;;;;;4.05;100.00;100974.56;4994834;28;20070;-69
2021/12/30 02:44:19;;;;;;;31.90;19.17;;;;;;;3.73;100.00;100967.19;4994230;28;20026;-69
2021/12/30 02:47:05;;;;;;;33.20;19.83;;;;;;;4.19;100.00;100975.59;4980571;28;20366;-69
2021/12/30 02:49:51;;;;;;;36.83;21.42;;;;;;;3.65;100.00;100977.47;4993549;28;20493;-69
2021/12/30 02:52:37;;;;;;;43.10;23.83;;;;;;;3.84;100.00;100981.19;4994505;28;20037;-69
2021/12/30 02:55:23;;;;;;;35.00;21.75;;;;;;;3.45;100.00;100990.97;4983299;28;20023;-70
2021/12/30 02:58:09;;;;;;;39.40;22.60;;;;;;;3.63;100.00;100986.06;4998343;28;20062;-69
2021/12/30 03:01:19;;;;;;;42.05;23.50;;;;;;;3.32;100.00;100989.94;4997770;28;20141;-69
2021/12/30 03:04:05;;;;;;;40.47;23.48;;;;;;;3.90;100.00;100987.31;4984740;28;20336;-69
2021/12/30 03:06:51;;;;;;;41.03;24.02;;;;;;;4.00;100.00;100996.09;4997553;28;20022;-70
2021/12/30 03:09:36;;;;;;;44.45;25.70;;;;;;;3.57;100.00;100994.63;4985190;28;20461;-69
2021/12/30 03:12:22;;;;;;;44.83;25.25;;;;;;;3.51;100.00;100999.72;4998248;28;20030;-70
2021/12/30 03:15:12;;;;;;;46.28;24.17;;;;;;;3.64;100.00;100991.28;4997611;28;20075;-69
2021/12/30 03:17:58;;;;;;;41.47;24.15;;;;;;;3.36;100.00;100998.59;4984054;28;20458;-70
2021/12/30 03:20:44;;;;;;;43.22;23.75;;;;;;;3.59;100.00;101002.41;4997430;28;20030;-69
2021/12/30 03:23:30;;;;;;;41.47;23.35;;;;;;;3.79;100.00;100999.28;4983764;28;20121;-69
2021/12/30 03:26:16;;;;;;;42.08;24.95;;;;;;;3.37;100.00;101001.22;4997224;28;20022;-69
2021/12/30 03:29:03;;;;;;;48.83;26.40;;;;;;;3.78;100.00;101007.03;4996350;28;20058;-69
2021/12/30 03:31:49;;;;;;;42.72;24.67;;;;;;;3.57;100.00;101009.28;4997417;28;20061;-69
2021/12/30 03:34:35;;;;;;;43.08;25.08;;;;;;;3.74;100.00;101016.47;4997658;28;20022;-69
2021/12/30 03:37:21;;;;;;;47.05;26.08;;;;;;;3.63;100.00;101010.28;4996862;28;20030;-69
2021/12/30 03:40:12;;;;;;;44.00;25.42;;;;;;;3.36;100.00;101004.66;4998308;28;20022;-70
2021/12/30 03:42:58;;;;;;;45.22;25.58;;;;;;;3.59;100.00;101010.19;4996518;28;20175;-68
2021/12/30 03:45:44;;;;;;;45.08;25.20;;;;;;;3.63;100.00;101018.03;4997302;28;20037;-69
2021/12/30 03:48:35;;;;;;;40.90;24.98;;;;;;;3.80;100.00;101029.53;4983834;28;20038;-69
2021/12/30 03:51:24;;;;;;;46.03;26.20;;;;;;;3.53;100.00;101039.47;4996953;28;20386;-69
2021/12/30 03:54:09;;;;;;;41.42;23.95;;;;;;;4.04;100.00;101032.47;4997374;28;20467;-69
2021/12/30 03:56:55;;;;;;;46.05;25.73;;;;;;;4.20;100.00;101033.53;4997339;28;20041;-71
2021/12/30 03:59:41;;;;;;;41.78;24.13;;;;;;;4.15;100.00;101045.56;4997213;28;20034;-69
2021/12/30 04:02:27;;;;;;;43.92;24.52;;;;;;;3.74;100.00;101047.56;4997252;28;20033;-69
2021/12/30 04:05:13;;;;;;;41.20;24.42;;;;;;;3.83;100.00;101047.72;4995573;28;20113;-69
2021/12/30 04:07:58;;;;;;;41.05;24.58;;;;;;;3.98;100.00;101058.28;4996015;28;20026;-69
2021/12/30 04:10:44;;;;;;;47.58;26.38;;;;;;;3.75;100.00;101057.09;4996770;28;20455;-70
2021/12/30 04:13:31;;;;;;;45.72;25.13;;;;;;;3.73;100.00;101063.94;4996593;28;20414;-68
2021/12/30 04:16:19;;;;;;;45.17;25.50;;;;;;;3.57;100.00;101066.25;4996717;28;20030;-69
2021/12/30 04:19:05;;;;;;;39.85;23.65;;;;;;;3.78;100.00;101070.06;4996552;28;20049;-69
2021/12/30 04:21:54;;;;;;;37.83;22.48;;;;;;;3.52;100.00;101084.34;4983689;28;20030;-69
2021/12/30 04:24:40;;;;;;;39.47;23.42;;;;;;;3.62;100.00;101088.81;4996603;28;20436;-68
2021/12/30 04:27:25;;;;;;;41.40;23.10;;;;;;;3.91;100.00;101084.09;4996258;28;20026;-69
2021/12/30 04:30:13;;;;;;;45.30;25.90;;;;;;;3.81;100.00;101077.91;4982676;28;20057;-69
2021/12/30 04:32:59;;;;;;;40.72;24.40;;;;;;;3.82;100.00;101083.97;4982373;28;20022;-69
2021/12/30 04:35:45;;;;;;;40.47;24.17;;;;;;;4.20;100.00;101093.16;4996693;28;20034;-71
2021/12/30 04:38:32;;;;;;;43.03;24.73;;;;;;;3.79;100.00;101100.34;4995564;28;20037;-70
2021/12/30 04:41:18;;;;;;;41.72;24.17;;;;;;;3.86;100.00;101112.53;4997194;28;20042;-68
2021/12/30 04:44:04;;;;;;;40.35;23.63;;;;;;;3.97;100.00;101112.69;4994808;28;20031;-70
2021/12/30 04:46:50;;;;;;;41.20;23.77;;;;;;;3.80;100.00;101128.00;4996034;28;20149;-68
2021/12/30 04:49:35;;;;;;;42.33;24.25;;;;;;;4.27;100.00;101129.56;4996007;28;20117;-69
2021/12/30 04:52:21;;;;;;;44.45;24.27;;;;;;;3.65;100.00;101132.03;4982871;28;20033;-69
2021/12/30 04:55:08;;;;;;;36.20;21.63;;;;;;;3.27;100.00;101136.56;4983259;28;20054;-69
2021/12/30 04:57:54;;;;;;;39.72;21.75;;;;;;;2.64;100.00;101145.63;4982313;28;20026;-70
2021/12/30 05:00:40;;;;;;;36.13;21.25;;;;;;;2.24;100.00;101155.94;4996164;28;20058;-69
2021/12/30 05:03:27;;;;;;;36.75;21.13;;;;;;;1.91;100.00;101165.50;4995133;28;20088;-69
2021/12/30 05:06:12;;;;;;;39.10;22.10;;;;;;;2.12;100.00;101168.59;4995764;28;20041;-70
2021/12/30 05:08:59;;;;;;;39.83;22.42;;;;;;;2.02;100.00;101168.34;4981135;28;20034;-70
2021/12/30 05:11:45;;;;;;;38.80;21.27;;;;;;;1.79;100.00;101174.66;4995590;28;20427;-68
2021/12/30 05:14:30;;;;;;;37.17;20.50;;;;;;;1.92;100.00;101181.88;4994768;28;20034;-69
2021/12/30 05:17:16;;;;;;;39.00;21.55;;;;;;;1.92;100.00;101177.56;4994054;28;20034;-69
2021/12/30 05:20:03;;;;;;;39.40;22.35;;;;;;;2.04;100.00;101183.03;4995540;28;20355;-68
2021/12/30 05:22:49;;;;;;;38.92;22.67;;;;;;;2.39;100.00;101191.63;4995806;28;20034;-68
2021/12/30 05:25:35;;;;;;;44.30;24.10;;;;;;;2.54;100.00;101182.50;4981629;28;20348;-69
2021/12/30 05:28:21;;;;;;;38.30;22.00;;;;;;;2.61;100.00;101191.28;4981656;28;20026;-68
2021/12/30 05:31:08;;;;;;;38.75;22.38;;;;;;;2.63;100.00;101194.75;4995302;28;20041;-69
2021/12/30 05:33:53;;;;;;;39.60;22.52;;;;;;;3.01;100.00;101193.84;4995495;28;20026;-68
2021/12/30 05:36:39;;;;;;;45.17;25.08;;;;;;;3.59;100.00;101200.19;4995648;28;20108;-68
2021/12/30 05:39:25;;;;;;;45.38;24.70;;;;;;;3.36;100.00;101200.56;4993700;28;20034;-69
2021/12/30 05:42:10;;;;;;;38.92;22.17;;;;;;;3.67;100.00;101198.59;4993901;28;20031;-69
2021/12/30 05:44:56;;;;;;;37.28;21.63;;;;;;;4.00;100.00;101193.97;4994748;28;20462;-70
2021/12/30 05:47:46;;;;;;;37.45;21.23;;;;;;;2.68;100.00;101199.19;4994834;28;20030;-69
2021/12/30 05:50:32;;;;;;;39.08;20.95;;;;;;;2.62;100.00;101216.28;4981522;28;20112;-69
2021/12/30 05:53:18;;;;;;;38.53;22.25;;;;;;;2.48;100.00;101217.66;4995117;28;20022;-69
2021/12/30 05:56:04;;;;;;;36.40;20.33;;;;;;;2.49;100.00;101228.06;4994410;28;20459;-70
2021/12/30 05:58:50;;;;;;;37.85;21.17;;;;;;;2.35;100.00;101228.56;4994475;28;20406;-70
2021/12/30 06:01:35;;;;;;;34.75;20.00;;;;;;;2.27;100.00;101233.56;4994243;28;20054;-69
2021/12/30 06:04:21;;;;;;;34.30;19.98;;;;;;;2.33;100.00;101238.88;4995080;28;20026;-68
2021/12/30 06:07:08;;;;;;;35.05;20.52;;;;;;;2.08;100.00;101241.72;4994412;28;20041;-68
2021/12/30 06:09:54;;;;;;;35.47;20.17;;;;;;;2.06;100.00;101252.84;4994912;28;20468;-69
2021/12/30 06:12:42;;;;;;;33.45;20.40;;;;;;;2.00;100.00;101263.00;4995091;28;20037;-68
2021/12/30 06:15:28;;;;;;;49.75;24.08;;;;;;;2.30;100.00;101279.31;4993818;28;20038;-69
2021/12/30 06:18:14;;;;;;;39.22;21.52;;;;;;;2.58;100.00;101290.31;4993967;28;20030;-69
2021/12/30 06:21:00;;;;;;;39.70;21.83;;;;;;;2.91;100.00;101291.13;4994148;28;20077;-69
2021/12/30 06:23:45;;;;;;;38.25;21.33;;;;;;;2.99;100.00;101301.63;4994736;28;20086;-68
2021/12/30 06:26:31;;;;;;;37.83;21.75;;;;;;;3.31;100.00;101303.19;4993431;28;20455;-68
2021/12/30 06:29:17;;;;;;;38.10;22.60;;;;;;;3.39;100.00;101305.13;4979966;28;20035;-68
2021/12/30 06:32:04;;;;;;;56.67;32.13;;;;;;;3.64;100.00;101306.47;4994356;28;20093;-70
2021/12/30 06:34:50;;;;;;;45.17;23.40;;;;;;;3.76;100.00;101309.28;4994241;28;20037;-68
2021/12/30 06:37:37;;;;;;;40.53;22.25;;;;;;;3.84;100.00;101316.38;4993027;28;20026;-69
2021/12/30 06:40:23;;;;;;;37.72;21.70;;;;;;;3.35;100.00;101324.03;4981108;28;20053;-69
2021/12/30 06:43:09;;;;;;;37.78;21.45;;;;;;;2.76;100.00;101341.63;4993979;28;20165;-69
2021/12/30 06:45:55;;;;;;;37.67;21.58;;;;;;;2.61;100.00;101341.28;4993474;28;20113;-69
2021/12/30 06:48:45;;;;;;;38.95;22.27;;;;;;;2.46;100.00;101359.00;4980753;28;20129;-69
2021/12/30 06:51:35;;;;;;;44.30;22.45;;;;;;;2.38;100.00;101368.28;4994040;28;20038;-69
2021/12/30 06:54:20;;;;;;;37.00;21.15;;;;;;;2.44;100.00;101369.28;4994391;28;20040;-70
2021/12/30 06:57:06;;;;;;;37.60;21.15;;;;;;;2.29;100.00;101373.22;4994230;28;20026;-69
2021/12/30 06:59:52;;;;;;;35.58;20.48;;;;;;;2.19;100.00;101378.97;4994420;28;20109;-69
2021/12/30 07:02:41;;;;;;;37.85;20.90;;;;;;;2.06;100.00;101375.19;4994018;28;20407;-68
2021/12/30 07:05:26;;;;;;;44.80;26.17;;;;;;;2.11;100.00;101381.34;4994199;28;20407;-68
2021/12/30 07:08:12;;;;;;;53.15;30.02;;;;;;;2.24;100.00;101393.75;4994364;28;20033;-68
2021/12/30 07:10:58;;;;;;;39.55;23.00;;;;;;;2.27;100.00;101400.72;4993839;28;20034;-69
2021/12/30 07:13:44;;;;;;;38.75;21.67;;;;;;;2.25;100.00;101407.56;4993766;28;20057;-69
2021/12/30 07:16:30;;;;;;;33.83;20.50;;;;;;;2.60;100.00;101410.22;4980527;28;20031;-68
2021/12/30 07:19:16;;;;;;;36.63;21.42;;;;;;;2.94;100.00;101415.38;4994034;28;20041;-69
2021/12/30 07:22:02;;;;;;;42.03;23.38;;;;;;;3.16;100.00;101419.34;4994144;28;20026;-69
2021/12/30 07:24:48;;;;;;;34.72;20.45;;;;;;;3.61;100.00;101425.56;4980035;28;20034;-69
2021/12/30 07:27:34;;;;;;;43.33;24.65;;;;;;;3.94;100.00;101424.56;4992475;28;20069;-70
2021/12/30 07:30:22;;;;;;;38.67;22.10;;;;;;;3.61;100.00;101428.16;4993566;28;20414;-69
2021/12/30 07:33:08;;;;;;;45.65;27.05;;;;;;;3.54;100.00;101427.16;4993634;28;20026;-69
2021/12/30 07:35:53;;;;;;;40.33;22.92;;;;;;;2.98;100.00;101426.69;4980370;28;20121;-68
2021/12/30 07:38:41;;;;;;;39.80;22.80;;;;;;;2.58;100.00;101427.41;4993091;28;20026;-68
2021/12/30 07:41:26;;;;;;;40.50;23.00;;;;;;;2.72;100.00;101435.50;4983156;28;20027;-68
2021/12/30 07:44:12;;;;;;;37.50;21.73;;;;;;;2.61;100.00;101430.06;4998205;28;20027;-69
2021/12/30 07:46:58;;;;;;;37.10;21.27;;;;;;;2.36;100.00;101431.97;4997078;28;20348;-69
2021/12/30 07:49:46;;;;;;;35.88;20.42;;;;;;;2.28;100.00;101438.66;4997081;28;20109;-68
2021/12/30 07:52:31;;;;;;;41.75;22.75;;;;;;;2.98;100.00;101444.81;4997493;28;20142;-68
2021/12/30 07:55:17;;;;;;;40.60;22.38;;;;;;;3.53;100.00;101458.19;4996941;28;20027;-69
2021/12/30 07:58:03;;;;;;;44.60;23.92;;;;;;;3.48;100.00;101460.69;4997006;28;20096;-68
2021/12/30 08:00:49;;;;;;;37.63;22.35;;;;;;;3.84;100.00;101460.63;4996746;28;20486;-69
2021/12/30 08:03:34;;;;;;;45.05;24.40;;;;;;;4.04;100.00;101464.50;4996908;28;20030;-69
2021/12/30 08:06:22;;;;;;;39.45;23.17;;;;;;;4.08;100.00;101467.22;4996167;28;20030;-68
2021/12/30 08:09:07;;;;;;;39.13;23.13;;;;;;;4.07;100.00;101472.38;4996088;28;20109;-68
2021/12/30 08:11:53;;;;;;;37.13;22.52;;;;;;;4.18;100.00;101476.91;4997137;28;20117;-68
2021/12/30 08:14:39;;;;;;;43.17;24.02;;;;;;;4.13;100.00;101475.06;4996983;28;20367;-68
2021/12/30 08:17:32;;;;;;;38.20;22.65;;;;;;;4.24;100.00;101477.06;4996836;28;20399;-68
2021/12/30 08:20:19;;;;;;;40.05;22.73;;;;;;;4.33;100.00;101482.41;4996548;28;20463;-68
2021/12/30 08:23:05;;;;;;;43.65;24.63;;;;;;;4.24;100.00;101494.31;4982568;28;20363;-68
2021/12/30 08:25:51;;;;;;;43.13;23.08;;;;;;;4.31;100.00;101494.47;4996474;28;20026;-68
2021/12/30 08:28:37;;;;;;;44.75;25.92;;;;;;;4.22;100.00;101506.41;4995857;28;20042;-68
2021/12/30 08:31:23;;;;;;;55.53;33.08;;;;;;;4.57;100.00;101503.63;4983112;28;20081;-70
2021/12/30 08:34:08;;;;;;;57.63;33.97;;;;;;;4.64;100.00;101495.13;4997108;28;20041;-68
2021/12/30 08:36:54;;;;;;;55.83;28.02;;;;;;;4.39;100.00;101507.59;4995964;28;20031;-69
2021/12/30 08:39:40;;;;;;;48.72;26.52;;;;;;;4.53;100.00;101498.34;4996466;28;20037;-68
2021/12/30 08:42:28;;;;;;;48.50;26.77;;;;;;;4.77;100.00;101499.69;4995630;28;20037;-69
2021/12/30 08:45:15;;;;;;;46.67;26.80;;;;;;;4.79;100.00;101500.59;4995759;28;20034;-70
2021/12/30 08:48:01;;;;;;;44.83;25.35;;;;;;;5.03;100.00;101506.22;4995686;28;20035;-68
2021/12/30 08:50:47;;;;;;;46.30;24.83;;;;;;;4.43;100.00;101512.00;4996228;28;20148;-69
2021/12/30 08:53:40;;;;;;;43.95;25.52;;;;;;;4.70;100.00;101510.81;4995879;28;20031;-68
2021/12/30 08:56:26;;;;;;;44.13;25.15;;;;;;;4.07;100.00;101519.88;4982020;28;20562;-68
2021/12/30 08:59:12;;;;;;;53.97;28.67;;;;;;;3.99;100.00;101533.53;4982602;28;20018;-70
2021/12/30 09:01:58;;;;;;;44.17;25.55;;;;;;;4.55;100.00;101526.06;4982320;28;20046;-69
2021/12/30 09:04:46;;;;;;;49.42;27.52;;;;;;;4.20;100.00;101529.69;4995536;28;20041;-69
2021/12/30 09:07:31;;;;;;;42.00;24.83;;;;;;;4.84;100.00;101530.13;4995919;28;20455;-68
2021/12/30 09:10:18;;;;;;;48.67;27.52;;;;;;;4.53;100.00;101537.28;4995771;28;20026;-70
2021/12/30 09:13:04;;;;;;;51.70;28.10;;;;;;;4.54;100.00;101542.50;4995754;28;20030;-69
2021/12/30 09:15:50;;;;;;;48.35;26.58;;;;;;;4.46;100.00;101545.81;4995708;28;20406;-68
2021/12/30 09:18:36;;;;;;;52.97;28.63;;;;;;;4.33;100.00;101548.97;4994822;28;20058;-69
2021/12/30 09:21:22;;;;;;;52.90;28.95;;;;;;;4.41;100.00;101545.69;4995629;28;20026;-68
2021/12/30 09:24:10;;;;;;;57.45;30.00;;;;;;;4.37;100.00;101545.59;4995519;28;20027;-68
2021/12/30 09:26:56;;;;;;;47.60;25.90;;;;;;;4.39;100.00;101533.53;4995002;28;20034;-69
2021/12/30 09:29:41;;;;;;;49.13;26.60;;;;;;;4.61;100.00;101540.88;4995344;28;20034;-70
2021/12/30 09:32:27;;;;;;;55.25;30.55;;;;;;;4.79;100.00;101549.91;4995359;28;20138;-70
2021/12/30 09:35:13;;;;;;;49.72;27.92;;;;;;;4.15;100.00;101559.81;4995168;28;20041;-69
2021/12/30 09:37:59;;;;;;;41.97;24.90;;;;;;;4.31;100.00;101564.50;4994336;28;20108;-68
2021/12/30 09:40:45;;;;;;;40.90;24.73;;;;;;;4.67;100.00;101562.66;4995025;28;20159;-69
2021/12/30 09:43:31;;;;;;;41.10;24.73;;;;;;;4.34;100.00;101569.75;4995103;28;20030;-70
2021/12/30 09:46:18;;;;;;;44.90;25.00;;;;;;;4.47;100.00;101571.75;4995017;28;20109;-69
2021/12/30 09:49:07;;;;;;;37.28;22.80;;;;;;;4.16;100.00;101569.38;4995451;28;20047;-67
2021/12/30 09:51:52;;;;;;;38.72;23.48;;;;;;;4.30;100.00;101573.13;4995150;28;20037;-68
2021/12/30 09:54:38;;;;;;;38.00;22.58;;;;;;;4.06;100.00;101569.16;4995243;28;20427;-69
2021/12/30 09:57:24;;;;;;;42.58;25.33;;;;;;;4.41;100.00;101576.81;4994695;28;20112;-68
2021/12/30 10:00:12;;;;;;;42.90;25.33;;;;;;;4.28;100.00;101572.22;4981755;28;20038;-68
2021/12/30 10:02:58;;;;;;;35.67;21.00;;;;;;;4.41;100.00;101574.22;4995390;28;20470;-69
2021/12/30 10:05:44;;;;;;;31.98;20.83;;;;;;;4.84;100.00;101570.78;4994796;28;20041;-69
2021/12/30 10:08:32;;;;;;;38.38;22.65;;;;;;;4.47;100.00;101576.94;4994384;28;20061;-68
2021/12/30 10:11:18;;;;;;;31.75;19.75;;;;;;;4.71;100.00;101580.03;4994719;28;20364;-67
2021/12/30 10:14:04;;;;;;;34.35;20.02;;;;;;;5.16;100.00;101580.03;4995219;28;20025;-68
2021/12/30 10:16:50;;;;;;;36.80;22.35;;;;;;;4.88;100.00;101580.38;4994688;28;20494;-70
2021/12/30 10:19:35;;;;;;;34.25;21.30;;;;;;;4.57;100.00;101578.00;4994132;28;20030;-68
2021/12/30 10:22:24;;;;;;;31.50;19.33;;;;;;;4.63;100.00;101576.41;4994684;28;20395;-67
2021/12/30 10:25:40;;;;;;;35.25;20.58;;;;;;;4.56;100.00;101582.34;4993702;28;20030;-69
2021/12/30 10:28:36;;;;;;;31.58;20.27;;;;;;;4.85;100.00;101583.78;4977231;28;20034;-69
2021/12/30 10:31:25;;;;;;;32.28;20.00;;;;;;;4.68;100.00;101587.78;4994487;28;20041;-69
2021/12/30 10:34:12;;;;;;;32.92;19.88;;;;;;;4.67;100.00;101596.38;4994663;28;20041;-70
2021/12/30 10:36:58;;;;;;;36.15;21.67;;;;;;;4.88;100.00;101589.03;4993716;28;20061;-69
2021/12/30 10:39:44;;;;;;;30.70;18.20;;;;;;;4.64;100.00;101593.75;4994049;28;20026;-68
2021/12/30 10:42:32;;;;;;;33.78;20.67;;;;;;;4.51;100.00;101591.72;4993098;28;20030;-69
2021/12/30 10:45:20;;;;;;;31.95;19.08;;;;;;;4.31;100.00;101595.63;4993970;28;20030;-68
2021/12/30 10:48:09;;;;;;;36.15;21.98;;;;;;;4.94;100.00;101596.03;4994126;28;20455;-70
2021/12/30 10:51:13;;;;;;;31.05;19.25;;;;;;;4.74;100.00;101602.56;4993249;28;20030;-68
2021/12/30 10:54:10;;;;;;;34.70;21.70;;;;;;;4.78;100.00;101600.06;4980008;28;20026;-68
2021/12/30 10:56:57;;;;;;;33.83;20.20;;;;;;;5.07;100.00;101593.72;4993747;28;20022;-69
2021/12/30 10:59:47;;;;;;;39.00;22.77;;;;;;;4.99;100.00;101595.28;4993493;28;20058;-68
2021/12/30 11:02:33;;;;;;;38.28;22.92;;;;;;;4.93;100.00;101602.97;4993327;28;20463;-68
2021/12/30 11:05:19;;;;;;;36.70;21.98;;;;;;;4.95;100.00;101603.88;4994188;28;20038;-69
2021/12/30 11:08:05;;;;;;;33.25;20.48;;;;;;;5.32;100.00;101598.50;4993926;28;20026;-69
2021/12/30 11:10:51;;;;;;;32.80;20.38;;;;;;;5.09;100.00;101597.22;4993102;28;20023;-68
2021/12/30 11:13:36;;;;;;;30.42;19.40;;;;;;;5.30;100.00;101597.59;4993690;28;20014;-69
2021/12/30 11:16:22;;;;;;;29.40;19.95;;;;;;;5.09;100.00;101602.44;4996893;28;20058;-69
2021/12/30 11:19:08;;;;;;;29.52;19.02;;;;;;;4.93;100.00;101600.38;4984713;28;20022;-70
2021/12/30 11:21:54;;;;;;;37.08;22.48;;;;;;;4.44;100.00;101608.03;4998268;28;20146;-68
2021/12/30 11:24:41;;;;;;;37.47;22.08;;;;;;;5.13;100.00;101601.63;4997756;28;20022;-68
2021/12/30 11:27:29;;;;;;;36.85;23.13;;;;;;;5.00;100.00;101612.66;4997813;28;20032;-69
2021/12/30 11:30:18;;;;;;;36.58;21.83;;;;;;;4.83;100.00;101610.56;4997650;28;20073;-68
2021/12/30 11:33:04;;;;;;;31.48;20.65;;;;;;;4.86;100.00;101613.19;4997113;28;20030;-69
2021/12/30 11:35:49;;;;;;;34.33;21.50;;;;;;;4.98;100.00;101616.91;4997646;28;20057;-68
2021/12/30 11:38:35;;;;;;;34.03;21.52;;;;;;;5.06;100.00;101614.47;4997025;28;20038;-68
2021/12/30 11:41:24;;;;;;;34.90;21.48;;;;;;;4.95;100.00;101622.03;4997173;28;20022;-69
2021/12/30 11:44:34;;;;;;;33.80;20.80;;;;;;;5.10;100.00;101616.25;4996925;28;20054;-69
2021/12/30 11:57:28;;;;;;;35.50;21.73;;;;;;;5.23;100.00;101639.91;4970677;28;20051;-68
2021/12/30 12:00:38;;;;;;;34.47;21.15;;;;;;;4.94;100.00;101640.19;4977210;28;20440;-68
2021/12/30 12:03:36;;;;;;;30.65;19.70;;;;;;;4.97;100.00;101646.34;4963082;28;20464;-69
2021/12/30 12:06:27;;;;;;;30.55;19.20;;;;;;;4.72;100.00;101646.69;4977222;28;20027;-69
2021/12/30 12:09:19;;;;;;;31.58;20.02;;;;;;;4.56;100.00;101654.09;4976345;28;20023;-69
2021/12/30 12:12:10;;;;;;;34.58;21.10;;;;;;;4.65;100.00;101657.78;4976152;28;20097;-68
2021/12/30 12:14:59;;;;;;;43.53;25.70;;;;;;;4.70;100.00;101663.94;4976687;28;20357;-69
2021/12/30 12:17:45;;;;;;;36.17;21.95;;;;;;;5.11;100.00;101663.03;4977941;28;20031;-69
2021/12/30 12:20:34;;;;;;;38.25;23.23;;;;;;;4.91;100.00;101669.56;4976339;28;20026;-69
2021/12/30 12:23:33;;;;;;;34.70;20.58;;;;;;;4.73;100.00;101673.50;4976154;28;20038;-69
2021/12/30 12:26:19;;;;;;;32.05;19.40;;;;;;;4.73;100.00;101679.59;4961503;28;20075;-68
2021/12/30 12:29:32;;;;;;;36.70;21.20;;;;;;;5.10;100.00;101673.41;4976601;28;20172;-68
2021/12/30 12:32:29;;;;;;;35.80;20.88;;;;;;;4.56;100.00;101673.16;4976380;28;20035;-68
2021/12/30 12:35:18;;;;;;;31.45;20.25;;;;;;;4.94;100.00;101671.34;4977145;28;20022;-68
2021/12/30 12:38:06;;;;;;;30.77;18.77;;;;;;;5.16;100.00;101664.00;4975685;28;20059;-69
2021/12/30 12:40:53;;;;;;;31.98;19.20;;;;;;;5.53;100.00;101667.28;4976325;28;20379;-69
2021/12/30 12:43:39;;;;;;;33.88;20.90;;;;;;;4.96;100.00;101667.97;4977281;28;20035;-68
2021/12/30 12:46:40;;;;;;;31.80;19.55;;;;;;;5.08;100.00;101670.81;4977639;28;20032;-69
2021/12/30 12:49:32;;;;;;;32.08;20.05;;;;;;;5.14;100.00;101677.81;4975886;28;20023;-69